Kezdőlap
METAR-TAF:

METAR-TAF

Repülőterek :

Párizs-Beauvais-Tilléi repülőtér

Beauvais, Franciaország

földrajzi szélesség: 49-28N, földrajzi hosszúság: 002-07E, magasság: 109 m

Jelenlegi meteorológiai megfigyelések

A jelentés 31 perccel ezelõtt készült, 12:30 UTC
Délnyugati szél 17 kt
Hőmérséklet 9°C
Páratartalom 66%
Légköri nyomás 1004 hPa
Látótávolság 10 km, vagy több
felhőtlen 1500 m magasságban, és nincs gomolyfelhõ

METAR: LFOB 151230Z AUTO 22017KT CAVOK 09/03 Q1004 NOSIG

Idő: 14:01 (13:01 UTC)

Előrejelzés

A jelentés 2 órával és 1 perccel ezelõtt készült, 11:00 UTC
Az előrejelzés 15-én 12 óra UTC és 16-én 12 óra UTC között érvényes
Délnyugati szél 15 kt
Látótávolság 10 km, vagy több
Szórványos felhőzet 3000 lábon
16-én 00 óra UTC és 16-én 12 óra UTC között ideiglenes
Szakadozott felhőzet 700 lábon

TAF: LFOB 151100Z 1512/1612 23015KT 9999 SCT030 TEMPO 1600/1612 BKN007

Meteorológiai megfigyelések és előrejelzések több, mint 4000 repülőtéren (METAR és TAF jelentéseket).

A térképen piros és sárga pontok jelzik az elérhető meteorológiai állomásokat.

Mozgassa az egeret a pont fölött, hogy megjelenjen az állomás neve.

Azután kattintson az időjárási megfigyelések és előrejelzések megtekintéséhez.

A térkép megváltoztatása: kattintson a fekete keresztel jelölt zöld gombra ráközelítéshez, a vonallal jelölt zöld gombra távolításhoz, vagy a zöld nyilakra a szomszédos térképek eléréséhez.


METAR-TAF: